createdAt,value
2022-12-15T00:01:34.774Z,13.85
2022-12-15T00:06:56.237Z,12.88
2022-12-15T00:12:19.049Z,13.68
2022-12-15T00:17:39.959Z,13.75
2022-12-15T00:23:00.816Z,13.07
2022-12-15T00:28:23.679Z,12.85
2022-12-15T00:33:44.496Z,13.38
2022-12-15T00:38:48.025Z,12.63
2022-12-15T00:43:52.869Z,14.68
2022-12-15T00:48:56.857Z,12.77
2022-12-15T00:54:18.361Z,14.00
2022-12-15T00:59:40.905Z,12.32
2022-12-15T01:05:01.839Z,13.00
2022-12-15T01:10:23.426Z,12.45
2022-12-15T01:15:46.111Z,14.18
2022-12-15T01:20:56.608Z,13.05
2022-12-15T01:31:11.674Z,12.15
2022-12-15T01:36:15.432Z,11.60
2022-12-15T01:41:19.368Z,11.63
2022-12-15T01:46:25.746Z,11.90
2022-12-15T01:51:34.700Z,11.70
2022-12-15T01:56:42.696Z,11.43
2022-12-15T02:01:49.826Z,12.20
2022-12-15T02:06:54.104Z,11.77
2022-12-15T02:12:03.137Z,11.85
2022-12-15T02:17:22.511Z,10.20
2022-12-15T02:22:45.620Z,12.25
2022-12-15T02:27:59.262Z,10.23
2022-12-15T02:33:09.968Z,12.25
2022-12-15T02:38:13.555Z,11.48
2022-12-15T02:43:17.223Z,11.88
2022-12-15T02:48:31.524Z,11.55
2022-12-15T02:53:51.802Z,12.35
2022-12-15T02:59:03.958Z,11.23
2022-12-15T03:04:11.765Z,12.45
2022-12-15T03:09:15.328Z,11.30
2022-12-15T03:14:19.061Z,11.10
2022-12-15T03:19:24.600Z,11.60
2022-12-15T03:24:28.150Z,12.27
2022-12-15T03:29:31.946Z,12.82
2022-12-15T03:34:36.986Z,10.52
2022-12-15T03:39:40.596Z,12.07
2022-12-15T03:44:44.076Z,10.77
2022-12-15T03:49:48.919Z,11.48
2022-12-15T03:54:52.497Z,12.02
2022-12-15T03:59:56.107Z,11.43
2022-12-15T04:05:00.942Z,11.85
2022-12-15T04:10:04.942Z,10.52
2022-12-15T04:15:10.395Z,10.45
2022-12-15T04:20:15.383Z,12.55
2022-12-15T04:25:38.880Z,11.40
2022-12-15T04:31:04.916Z,12.27
2022-12-15T04:36:30.616Z,12.40
2022-12-15T04:41:51.563Z,12.13
2022-12-15T04:47:13.085Z,12.23
2022-12-15T04:52:35.437Z,12.40
2022-12-15T04:57:56.578Z,12.20
2022-12-15T05:03:22.914Z,13.65
2022-12-15T05:08:44.979Z,13.20
2022-12-15T05:14:05.852Z,13.27
2022-12-15T05:19:26.468Z,12.75
2022-12-15T05:24:48.980Z,13.65
2022-12-15T05:30:09.819Z,14.38
2022-12-15T05:35:13.334Z,15.32
2022-12-15T05:40:18.224Z,13.90
2022-12-15T05:45:21.685Z,14.95
2022-12-15T05:50:25.309Z,14.98
2022-12-15T05:55:30.552Z,14.60
2022-12-15T06:00:34.054Z,14.13
2022-12-15T06:05:37.567Z,15.65
2022-12-15T06:10:42.468Z,15.15
2022-12-15T06:15:56.094Z,18.85
2022-12-15T06:21:01.390Z,14.77
2022-12-15T06:26:12.518Z,15.32
2022-12-15T06:31:18.035Z,13.75
2022-12-15T06:36:24.052Z,14.10
2022-12-15T06:41:30.527Z,15.50
2022-12-15T06:46:35.693Z,15.23
2022-12-15T06:51:39.527Z,16.20
2022-12-15T06:56:44.351Z,16.17
2022-12-15T07:01:48.259Z,14.07
2022-12-15T07:06:52.006Z,15.35
2022-12-15T07:11:56.856Z,15.05
2022-12-15T07:17:00.463Z,16.17
2022-12-15T07:22:04.119Z,15.00
2022-12-15T07:27:09.245Z,14.68
2022-12-15T07:32:12.888Z,16.48
2022-12-15T07:37:17.076Z,16.65
2022-12-15T07:42:22.407Z,15.85
2022-12-15T07:47:28.252Z,14.43
2022-12-15T07:52:32.344Z,14.77
2022-12-15T07:57:37.608Z,16.27
2022-12-15T08:02:42.157Z,16.15
2022-12-15T08:07:45.816Z,15.55
2022-12-15T08:12:50.977Z,16.88
2022-12-15T08:17:54.711Z,16.52
2022-12-15T08:22:58.746Z,17.25
2022-12-15T08:28:05.086Z,23.13
2022-12-15T08:33:08.657Z,16.00
2022-12-15T08:38:12.187Z,18.45
2022-12-15T08:43:17.196Z,18.75
2022-12-15T08:48:20.971Z,17.92
2022-12-15T08:53:32.483Z,18.48
2022-12-15T08:58:38.015Z,20.38
2022-12-15T09:03:42.206Z,24.95
2022-12-15T09:08:50.182Z,23.98
2022-12-15T09:13:55.902Z,23.85
2022-12-15T09:19:01.118Z,22.77
2022-12-15T09:24:05.907Z,24.55
2022-12-15T09:29:13.098Z,22.95
2022-12-15T09:34:18.328Z,20.60
2022-12-15T09:39:22.467Z,23.05
2022-12-15T09:44:29.697Z,22.02
2022-12-15T09:49:49.898Z,22.75
2022-12-15T09:54:53.782Z,22.85
2022-12-15T10:00:07.514Z,22.95
2022-12-15T10:05:18.131Z,22.40
2022-12-15T10:15:42.446Z,24.10
2022-12-15T10:20:46.413Z,23.20
2022-12-15T10:26:01.373Z,26.15
2022-12-15T10:31:17.390Z,24.02
2022-12-15T10:36:23.240Z,24.35
2022-12-15T10:41:26.965Z,25.15
2022-12-15T10:46:32.895Z,24.02
2022-12-15T10:51:43.932Z,20.90
2022-12-15T10:56:53.307Z,21.95
2022-12-15T11:02:27.118Z,23.63
2022-12-15T11:07:37.009Z,22.67
2022-12-15T11:12:58.369Z,23.88
2022-12-15T11:18:11.697Z,25.00
2022-12-15T11:23:23.141Z,25.55
2022-12-15T11:28:34.157Z,26.08
2022-12-15T11:38:48.569Z,24.75
2022-12-15T11:44:07.877Z,26.63
2022-12-15T11:49:48.479Z,26.27
2022-12-15T11:54:56.810Z,23.35
2022-12-15T12:00:09.746Z,24.77
2022-12-15T12:05:36.684Z,25.15
2022-12-15T12:10:50.554Z,23.52
2022-12-15T12:16:03.417Z,28.08
2022-12-15T12:21:12.137Z,23.80
2022-12-15T12:26:23.907Z,24.38
2022-12-15T12:31:36.093Z,23.70
2022-12-15T12:36:43.509Z,23.13
2022-12-15T12:41:57.401Z,25.23
2022-12-15T12:47:10.494Z,24.00
2022-12-15T12:52:23.734Z,25.38
2022-12-15T12:57:37.187Z,24.15
2022-12-15T13:02:54.807Z,24.67
2022-12-15T13:08:28.495Z,26.80
2022-12-15T13:13:47.450Z,25.05
2022-12-15T13:19:06.876Z,26.13
2022-12-15T13:24:23.906Z,26.90
2022-12-15T13:29:27.608Z,27.05
2022-12-15T13:34:38.725Z,27.40
2022-12-15T13:39:59.318Z,26.73
2022-12-15T13:45:43.106Z,25.42
2022-12-15T13:50:56.615Z,25.83
2022-12-15T13:56:24.686Z,26.05
2022-12-15T14:01:32.672Z,26.80
2022-12-15T14:06:41.211Z,28.63
2022-12-15T14:11:55.271Z,26.63
2022-12-15T14:17:02.238Z,27.35
2022-12-15T14:27:50.645Z,27.17
2022-12-15T14:32:59.418Z,29.92
2022-12-15T14:38:07.652Z,32.92
2022-12-15T14:43:18.170Z,29.42
2022-12-15T14:48:44.817Z,30.30
2022-12-15T14:53:53.288Z,27.38
2022-12-15T14:59:04.111Z,31.73
2022-12-15T15:09:22.325Z,26.30
2022-12-15T15:14:30.361Z,25.63
2022-12-15T15:19:39.352Z,28.30
2022-12-15T15:24:51.799Z,28.25
2022-12-15T15:30:14.748Z,28.02
2022-12-15T15:35:19.263Z,27.58
2022-12-15T15:40:24.264Z,31.88
2022-12-15T15:45:29.511Z,29.02
2022-12-15T15:50:33.451Z,24.80
2022-12-15T15:55:39.845Z,26.15
2022-12-15T16:00:45.054Z,27.33
2022-12-15T16:05:48.995Z,29.95
2022-12-15T16:10:53.211Z,29.20
2022-12-15T16:15:58.476Z,31.02
2022-12-15T16:21:02.303Z,29.48
2022-12-15T16:26:07.772Z,26.73
2022-12-15T16:31:17.042Z,28.77
2022-12-15T16:36:22.323Z,28.05
2022-12-15T16:41:28.056Z,29.08
2022-12-15T16:46:33.114Z,28.77
2022-12-15T16:51:40.550Z,28.30
2022-12-15T16:56:44.198Z,26.38
2022-12-15T17:01:49.886Z,29.02
2022-12-15T17:06:54.271Z,28.58
2022-12-15T17:11:59.392Z,28.65
2022-12-15T17:17:10.462Z,25.65
2022-12-15T17:22:16.529Z,24.10
2022-12-15T17:27:26.889Z,28.92
2022-12-15T17:32:32.187Z,29.10
2022-12-15T17:37:35.831Z,32.13
2022-12-15T17:42:39.417Z,28.60
2022-12-15T17:47:45.155Z,29.38
2022-12-15T17:52:49.994Z,30.77
2022-12-15T17:57:55.791Z,26.67
2022-12-15T18:03:02.277Z,27.63
2022-12-15T18:08:14.478Z,27.92
2022-12-15T18:13:19.970Z,27.23
2022-12-15T18:18:26.009Z,28.42
2022-12-15T18:23:32.395Z,26.55
2022-12-15T18:28:36.780Z,29.45
2022-12-15T18:33:41.674Z,29.63
2022-12-15T18:38:45.496Z,27.33
2022-12-15T18:43:49.118Z,27.50
2022-12-15T18:48:56.037Z,31.80
2022-12-15T18:53:59.806Z,29.52
2022-12-15T18:59:03.537Z,30.33
2022-12-15T19:04:08.745Z,26.75
2022-12-15T19:09:17.016Z,30.30
2022-12-15T19:14:34.506Z,28.17
2022-12-15T19:19:57.104Z,28.17
2022-12-15T19:25:02.429Z,27.73
2022-12-15T19:30:14.929Z,24.80
2022-12-15T19:35:20.730Z,25.40
2022-12-15T19:40:27.587Z,26.35
2022-12-15T19:45:33.678Z,27.70
2022-12-15T19:50:40.701Z,24.88
2022-12-15T19:55:45.518Z,25.45
2022-12-15T20:00:49.965Z,30.77
2022-12-15T20:05:56.486Z,25.17
2022-12-15T20:11:00.183Z,26.20
2022-12-15T20:16:03.701Z,25.08
2022-12-15T20:21:11.367Z,26.60
2022-12-15T20:26:15.196Z,26.45
2022-12-15T20:31:23.324Z,27.92
2022-12-15T20:36:31.121Z,29.65
2022-12-15T20:41:34.974Z,27.70
2022-12-15T20:46:39.004Z,28.73
2022-12-15T20:51:44.812Z,27.33
2022-12-15T20:56:49.699Z,26.13
2022-12-15T21:01:53.619Z,25.35
2022-12-15T21:07:00.045Z,24.30
2022-12-15T21:12:09.001Z,25.35
2022-12-15T21:17:15.830Z,24.48
2022-12-15T21:22:23.708Z,24.73
2022-12-15T21:27:29.366Z,22.55
2022-12-15T21:32:33.496Z,24.23
2022-12-15T21:37:38.414Z,23.55
2022-12-15T21:42:42.086Z,22.65
2022-12-15T21:48:03.622Z,22.13
2022-12-15T21:53:16.072Z,22.17
2022-12-15T21:58:22.071Z,22.58
2022-12-15T22:03:25.842Z,23.02
2022-12-15T22:08:31.163Z,23.65
2022-12-15T22:13:35.216Z,21.25
2022-12-15T22:18:38.823Z,24.10
2022-12-15T22:23:43.732Z,26.35
2022-12-15T22:28:47.503Z,27.85
2022-12-15T22:33:51.388Z,23.77
2022-12-15T22:38:56.357Z,30.08
2022-12-15T22:44:00.086Z,26.20
2022-12-15T22:49:03.783Z,24.75
2022-12-15T22:54:18.831Z,22.70
2022-12-15T22:59:27.773Z,24.17
2022-12-15T23:04:32.897Z,23.65
2022-12-15T23:09:37.753Z,23.60
2022-12-15T23:14:58.644Z,21.98
2022-12-15T23:20:02.078Z,22.48
2022-12-15T23:25:07.956Z,23.15
2022-12-15T23:30:13.058Z,24.38
2022-12-15T23:35:16.768Z,22.05
2022-12-15T23:40:22.404Z,22.63
2022-12-15T23:45:26.129Z,22.23
2022-12-15T23:50:29.557Z,20.80
2022-12-15T23:55:36.128Z,25.38
